Aberford, United Kingdom
Current Conditions -  °F | °C
As of 11:50 AM on Friday 19 Dec 2014 (Local Time) from EGNM Reporting Station
Few Clouds Few Clouds  
Wind Chill:   Ceiling: Unl
Heat Index:   Visibility: 6mi
Dew Point:   Wind: 26mph
Humidity: 70%   Direction: 270°W
Pressure: 29.77"   Gusts: 41mph
Location:  53.83°N, 1.34°W
Report Text: EGNM 191150Z 27023G36KT 9999 FEW016CB 06/01 Q1008
Loading
Personal Weather Stations






























Interactive Weather Map New forecast layout! Learn more

10-Day Weather Forecast

Advertisements
Track Severe Weather on mobile